Terminal Aerodrome Forecast
Issued by NWS Grand Rapids, MI

Home | Current Version | Previous Version | Text Only | Print | Product List | Glossary On
Versions: 1 2 3 4 5 6 7 8 9 10 11 12 13 14 15
322
FTUS43 KGRR 281121
TAFGRR
TAF
KGRR 281121Z 2812/2912 00000KT P6SM BKN080 BKN250
     FM281400 07006KT P6SM BKN060
     FM281800 07005KT P6SM VCTS BKN070CB
     FM290200 06005KT P6SM OVC100=

USA.gov is the U.S. government's official web portal to all federal, state and local government web resources and services.